sensor_id;sensor_type;location;lat;lon;timestamp;temperature;humidity
31133;DHT22;17779;50.942;4.026;2022-11-13T00:02:11;8.80;99.90
31133;DHT22;17779;50.942;4.026;2022-11-13T00:04:39;8.80;99.90
31133;DHT22;17779;50.942;4.026;2022-11-13T00:07:05;9.00;99.90
31133;DHT22;17779;50.942;4.026;2022-11-13T00:09:31;9.20;99.90
31133;DHT22;17779;50.942;4.026;2022-11-13T00:11:58;9.00;99.90
31133;DHT22;17779;50.942;4.026;2022-11-13T00:14:25;9.00;99.90
31133;DHT22;17779;50.942;4.026;2022-11-13T00:16:51;9.10;99.90
31133;DHT22;17779;50.942;4.026;2022-11-13T00:19:17;9.20;99.90
31133;DHT22;17779;50.942;4.026;2022-11-13T00:21:43;9.10;99.90
31133;DHT22;17779;50.942;4.026;2022-11-13T00:24:09;9.10;99.90
31133;DHT22;17779;50.942;4.026;2022-11-13T00:26:34;9.00;99.90
31133;DHT22;17779;50.942;4.026;2022-11-13T00:29:01;8.80;99.90
31133;DHT22;17779;50.942;4.026;2022-11-13T00:33:57;8.50;99.90
31133;DHT22;17779;50.942;4.026;2022-11-13T00:36:26;8.30;99.90
31133;DHT22;17779;50.942;4.026;2022-11-13T00:38:51;8.40;99.90
31133;DHT22;17779;50.942;4.026;2022-11-13T00:41:19;8.60;99.90
31133;DHT22;17779;50.942;4.026;2022-11-13T00:43:44;8.60;99.90
31133;DHT22;17779;50.942;4.026;2022-11-13T00:46:11;8.60;99.90
31133;DHT22;17779;50.942;4.026;2022-11-13T00:48:40;8.20;99.90
31133;DHT22;17779;50.942;4.026;2022-11-13T00:51:05;8.20;99.90
31133;DHT22;17779;50.942;4.026;2022-11-13T00:53:31;8.00;99.90
31133;DHT22;17779;50.942;4.026;2022-11-13T00:55:57;8.00;99.90
31133;DHT22;17779;50.942;4.026;2022-11-13T00:58:27;7.90;99.90
31133;DHT22;17779;50.942;4.026;2022-11-13T01:00:53;7.80;99.90
31133;DHT22;17779;50.942;4.026;2022-11-13T01:03:18;7.90;99.90
31133;DHT22;17779;50.942;4.026;2022-11-13T01:05:45;7.80;99.90
31133;DHT22;17779;50.942;4.026;2022-11-13T01:08:12;7.80;99.90
31133;DHT22;17779;50.942;4.026;2022-11-13T01:10:45;7.90;99.90
31133;DHT22;17779;50.942;4.026;2022-11-13T01:13:11;7.80;99.90
31133;DHT22;17779;50.942;4.026;2022-11-13T01:15:43;7.80;99.90
31133;DHT22;17779;50.942;4.026;2022-11-13T01:18:09;7.90;99.90
31133;DHT22;17779;50.942;4.026;2022-11-13T01:20:35;7.80;99.90
31133;DHT22;17779;50.942;4.026;2022-11-13T01:23:02;7.70;99.90
31133;DHT22;17779;50.942;4.026;2022-11-13T01:25:30;7.70;99.90
31133;DHT22;17779;50.942;4.026;2022-11-13T01:30:25;7.40;99.90
31133;DHT22;17779;50.942;4.026;2022-11-13T01:32:51;7.60;99.90
31133;DHT22;17779;50.942;4.026;2022-11-13T01:35:22;7.60;99.90
31133;DHT22;17779;50.942;4.026;2022-11-13T01:37:48;7.60;99.90
31133;DHT22;17779;50.942;4.026;2022-11-13T01:40:13;7.80;99.90
31133;DHT22;17779;50.942;4.026;2022-11-13T01:42:41;7.90;99.90
31133;DHT22;17779;50.942;4.026;2022-11-13T01:47:52;7.90;99.90
31133;DHT22;17779;50.942;4.026;2022-11-13T01:50:18;7.90;99.90
31133;DHT22;17779;50.942;4.026;2022-11-13T01:52:45;7.90;99.90
31133;DHT22;17779;50.942;4.026;2022-11-13T01:55:11;7.70;99.90
31133;DHT22;17779;50.942;4.026;2022-11-13T01:57:38;7.60;99.90
31133;DHT22;17779;50.942;4.026;2022-11-13T02:00:06;7.70;99.90
31133;DHT22;17779;50.942;4.026;2022-11-13T02:02:33;7.80;99.90
31133;DHT22;17779;50.942;4.026;2022-11-13T02:07:30;7.80;99.90
31133;DHT22;17779;50.942;4.026;2022-11-13T02:09:56;7.90;99.90
31133;DHT22;17779;50.942;4.026;2022-11-13T02:12:33;7.90;99.90
31133;DHT22;17779;50.942;4.026;2022-11-13T02:15:02;7.90;99.90
31133;DHT22;17779;50.942;4.026;2022-11-13T02:20:44;7.80;99.90
31133;DHT22;17779;50.942;4.026;2022-11-13T02:23:45;7.80;99.90
31133;DHT22;17779;50.942;4.026;2022-11-13T02:26:03;7.90;99.90
31133;DHT22;17779;50.942;4.026;2022-11-13T02:28:30;8.00;99.90
31133;DHT22;17779;50.942;4.026;2022-11-13T02:31:04;8.00;99.90
31133;DHT22;17779;50.942;4.026;2022-11-13T02:33:31;8.00;99.90
31133;DHT22;17779;50.942;4.026;2022-11-13T02:36:03;8.10;99.90
31133;DHT22;17779;50.942;4.026;2022-11-13T02:38:31;8.10;99.90
31133;DHT22;17779;50.942;4.026;2022-11-13T02:40:58;7.80;99.90
31133;DHT22;17779;50.942;4.026;2022-11-13T02:43:23;7.60;99.90
31133;DHT22;17779;50.942;4.026;2022-11-13T02:45:50;7.40;99.90
31133;DHT22;17779;50.942;4.026;2022-11-13T02:48:16;7.30;99.90
31133;DHT22;17779;50.942;4.026;2022-11-13T02:50:41;7.20;99.90
31133;DHT22;17779;50.942;4.026;2022-11-13T02:53:08;7.20;99.90
31133;DHT22;17779;50.942;4.026;2022-11-13T02:55:35;7.20;99.90
31133;DHT22;17779;50.942;4.026;2022-11-13T02:58:02;7.20;99.90
31133;DHT22;17779;50.942;4.026;2022-11-13T03:00:28;7.20;99.90
31133;DHT22;17779;50.942;4.026;2022-11-13T03:02:53;7.00;99.90
31133;DHT22;17779;50.942;4.026;2022-11-13T03:05:20;6.90;99.90
31133;DHT22;17779;50.942;4.026;2022-11-13T03:07:47;6.90;99.90
31133;DHT22;17779;50.942;4.026;2022-11-13T03:10:14;7.00;99.90
31133;DHT22;17779;50.942;4.026;2022-11-13T03:12:45;7.10;99.90
31133;DHT22;17779;50.942;4.026;2022-11-13T03:15:11;7.10;99.90
31133;DHT22;17779;50.942;4.026;2022-11-13T03:17:36;7.10;99.90
31133;DHT22;17779;50.942;4.026;2022-11-13T03:20:02;7.10;99.90
31133;DHT22;17779;50.942;4.026;2022-11-13T03:22:29;7.00;99.90
31133;DHT22;17779;50.942;4.026;2022-11-13T03:24:56;7.20;99.90
31133;DHT22;17779;50.942;4.026;2022-11-13T03:27:22;7.10;99.90
31133;DHT22;17779;50.942;4.026;2022-11-13T03:29:47;7.00;99.90
31133;DHT22;17779;50.942;4.026;2022-11-13T03:32:14;7.00;99.90
31133;DHT22;17779;50.942;4.026;2022-11-13T03:34:40;7.00;99.90
31133;DHT22;17779;50.942;4.026;2022-11-13T03:37:07;6.90;99.90
31133;DHT22;17779;50.942;4.026;2022-11-13T03:39:34;6.90;99.90
31133;DHT22;17779;50.942;4.026;2022-11-13T03:41:59;7.00;99.90
31133;DHT22;17779;50.942;4.026;2022-11-13T03:44:26;7.10;99.90
31133;DHT22;17779;50.942;4.026;2022-11-13T03:46:51;7.10;99.90
31133;DHT22;17779;50.942;4.026;2022-11-13T03:49:18;7.20;99.90
31133;DHT22;17779;50.942;4.026;2022-11-13T03:51:44;7.40;99.90
31133;DHT22;17779;50.942;4.026;2022-11-13T03:54:09;7.50;99.90
31133;DHT22;17779;50.942;4.026;2022-11-13T03:56:35;7.60;99.90
31133;DHT22;17779;50.942;4.026;2022-11-13T03:59:06;7.60;99.90
31133;DHT22;17779;50.942;4.026;2022-11-13T04:01:33;7.60;99.90
31133;DHT22;17779;50.942;4.026;2022-11-13T04:03:59;7.50;99.90
31133;DHT22;17779;50.942;4.026;2022-11-13T04:06:25;7.30;99.90
31133;DHT22;17779;50.942;4.026;2022-11-13T04:08:52;7.30;99.90
31133;DHT22;17779;50.942;4.026;2022-11-13T04:11:19;7.30;99.90
31133;DHT22;17779;50.942;4.026;2022-11-13T04:13:44;7.40;99.90
31133;DHT22;17779;50.942;4.026;2022-11-13T04:16:10;7.40;99.90
31133;DHT22;17779;50.942;4.026;2022-11-13T04:21:05;7.20;99.90
31133;DHT22;17779;50.942;4.026;2022-11-13T04:23:32;7.00;99.90
31133;DHT22;17779;50.942;4.026;2022-11-13T04:25:59;6.90;99.90
31133;DHT22;17779;50.942;4.026;2022-11-13T04:28:25;7.00;99.90
31133;DHT22;17779;50.942;4.026;2022-11-13T04:30:57;7.20;99.90
31133;DHT22;17779;50.942;4.026;2022-11-13T04:33:23;7.00;99.90
31133;DHT22;17779;50.942;4.026;2022-11-13T04:35:52;6.60;99.90
31133;DHT22;17779;50.942;4.026;2022-11-13T04:38:19;6.70;99.90
31133;DHT22;17779;50.942;4.026;2022-11-13T04:40:48;6.70;99.90
31133;DHT22;17779;50.942;4.026;2022-11-13T04:43:15;6.70;99.90
31133;DHT22;17779;50.942;4.026;2022-11-13T04:45:41;6.70;99.90
31133;DHT22;17779;50.942;4.026;2022-11-13T04:48:09;6.60;99.90
31133;DHT22;17779;50.942;4.026;2022-11-13T04:50:34;6.50;99.90
31133;DHT22;17779;50.942;4.026;2022-11-13T04:53:00;6.60;99.90
31133;DHT22;17779;50.942;4.026;2022-11-13T04:55:25;6.90;99.90
31133;DHT22;17779;50.942;4.026;2022-11-13T04:58:00;7.10;99.90
31133;DHT22;17779;50.942;4.026;2022-11-13T05:00:25;7.10;99.90
31133;DHT22;17779;50.942;4.026;2022-11-13T05:02:51;7.00;99.90
31133;DHT22;17779;50.942;4.026;2022-11-13T05:05:18;7.10;99.90
31133;DHT22;17779;50.942;4.026;2022-11-13T05:07:44;7.20;99.90
31133;DHT22;17779;50.942;4.026;2022-11-13T05:10:16;7.30;99.90
31133;DHT22;17779;50.942;4.026;2022-11-13T05:12:41;6.90;99.90
31133;DHT22;17779;50.942;4.026;2022-11-13T05:15:07;6.60;99.90
31133;DHT22;17779;50.942;4.026;2022-11-13T05:17:34;6.60;99.90
31133;DHT22;17779;50.942;4.026;2022-11-13T05:19:59;6.60;99.90
31133;DHT22;17779;50.942;4.026;2022-11-13T05:22:28;6.90;99.90
31133;DHT22;17779;50.942;4.026;2022-11-13T05:24:56;6.80;99.90
31133;DHT22;17779;50.942;4.026;2022-11-13T05:27:23;6.90;99.90
31133;DHT22;17779;50.942;4.026;2022-11-13T05:29:50;6.80;99.90
31133;DHT22;17779;50.942;4.026;2022-11-13T05:32:16;6.90;99.90
31133;DHT22;17779;50.942;4.026;2022-11-13T05:34:41;6.80;99.90
31133;DHT22;17779;50.942;4.026;2022-11-13T05:37:08;6.70;99.90
31133;DHT22;17779;50.942;4.026;2022-11-13T05:39:34;6.70;99.90
31133;DHT22;17779;50.942;4.026;2022-11-13T05:44:37;7.10;99.90
31133;DHT22;17779;50.942;4.026;2022-11-13T05:47:03;7.20;99.90
31133;DHT22;17779;50.942;4.026;2022-11-13T05:51:58;7.10;99.90
31133;DHT22;17779;50.942;4.026;2022-11-13T05:54:23;6.90;99.90
31133;DHT22;17779;50.942;4.026;2022-11-13T05:56:49;6.70;99.90
31133;DHT22;17779;50.942;4.026;2022-11-13T05:59:14;6.40;99.90
31133;DHT22;17779;50.942;4.026;2022-11-13T06:01:41;6.20;99.90
31133;DHT22;17779;50.942;4.026;2022-11-13T06:04:06;6.10;99.90
31133;DHT22;17779;50.942;4.026;2022-11-13T06:06:32;6.20;99.90
31133;DHT22;17779;50.942;4.026;2022-11-13T06:08:59;6.20;99.90
31133;DHT22;17779;50.942;4.026;2022-11-13T06:11:25;6.40;99.90
31133;DHT22;17779;50.942;4.026;2022-11-13T06:13:53;6.50;99.90
31133;DHT22;17779;50.942;4.026;2022-11-13T06:16:21;6.30;99.90
31133;DHT22;17779;50.942;4.026;2022-11-13T06:18:47;6.20;99.90
31133;DHT22;17779;50.942;4.026;2022-11-13T06:21:17;6.10;99.90
31133;DHT22;17779;50.942;4.026;2022-11-13T06:23:43;6.10;99.90
31133;DHT22;17779;50.942;4.026;2022-11-13T06:26:10;6.10;99.90
31133;DHT22;17779;50.942;4.026;2022-11-13T06:28:36;6.30;99.90
31133;DHT22;17779;50.942;4.026;2022-11-13T06:31:06;6.40;99.90
31133;DHT22;17779;50.942;4.026;2022-11-13T06:33:32;6.40;99.90
31133;DHT22;17779;50.942;4.026;2022-11-13T06:36:02;6.20;99.90
31133;DHT22;17779;50.942;4.026;2022-11-13T06:38:31;6.30;99.90
31133;DHT22;17779;50.942;4.026;2022-11-13T06:40:58;6.40;99.90
31133;DHT22;17779;50.942;4.026;2022-11-13T06:43:25;6.30;99.90
31133;DHT22;17779;50.942;4.026;2022-11-13T06:45:53;6.40;99.90
31133;DHT22;17779;50.942;4.026;2022-11-13T06:48:20;6.10;99.90
31133;DHT22;17779;50.942;4.026;2022-11-13T06:50:46;5.90;99.90
31133;DHT22;17779;50.942;4.026;2022-11-13T06:53:11;6.00;99.90
31133;DHT22;17779;50.942;4.026;2022-11-13T06:55:43;5.90;99.90
31133;DHT22;17779;50.942;4.026;2022-11-13T06:58:10;5.60;99.90
31133;DHT22;17779;50.942;4.026;2022-11-13T07:00:36;5.60;99.90
31133;DHT22;17779;50.942;4.026;2022-11-13T07:03:01;5.60;99.90
31133;DHT22;17779;50.942;4.026;2022-11-13T07:05:27;5.30;99.90
31133;DHT22;17779;50.942;4.026;2022-11-13T07:07:55;5.30;99.90
31133;DHT22;17779;50.942;4.026;2022-11-13T07:10:22;5.30;99.90
31133;DHT22;17779;50.942;4.026;2022-11-13T07:12:48;5.30;99.90
31133;DHT22;17779;50.942;4.026;2022-11-13T07:15:15;5.50;99.90
31133;DHT22;17779;50.942;4.026;2022-11-13T07:17:42;5.80;99.90
31133;DHT22;17779;50.942;4.026;2022-11-13T07:20:14;5.80;99.90
31133;DHT22;17779;50.942;4.026;2022-11-13T07:22:40;5.70;99.90
31133;DHT22;17779;50.942;4.026;2022-11-13T07:25:08;5.60;99.90
31133;DHT22;17779;50.942;4.026;2022-11-13T07:27:34;5.70;99.90
31133;DHT22;17779;50.942;4.026;2022-11-13T07:30:00;5.80;99.90
31133;DHT22;17779;50.942;4.026;2022-11-13T07:32:27;5.70;99.90
31133;DHT22;17779;50.942;4.026;2022-11-13T07:34:52;5.90;99.90
31133;DHT22;17779;50.942;4.026;2022-11-13T07:37:18;6.20;99.90
31133;DHT22;17779;50.942;4.026;2022-11-13T07:39:44;6.20;99.90
31133;DHT22;17779;50.942;4.026;2022-11-13T07:42:09;6.30;99.90
31133;DHT22;17779;50.942;4.026;2022-11-13T07:44:35;6.10;99.90
31133;DHT22;17779;50.942;4.026;2022-11-13T07:47:01;5.80;99.90
31133;DHT22;17779;50.942;4.026;2022-11-13T07:49:27;5.60;99.90
31133;DHT22;17779;50.942;4.026;2022-11-13T07:51:53;5.80;99.90
31133;DHT22;17779;50.942;4.026;2022-11-13T07:54:18;5.70;99.90
31133;DHT22;17779;50.942;4.026;2022-11-13T07:56:44;5.70;99.90
31133;DHT22;17779;50.942;4.026;2022-11-13T07:59:11;5.70;99.90
31133;DHT22;17779;50.942;4.026;2022-11-13T08:01:37;5.70;99.90
31133;DHT22;17779;50.942;4.026;2022-11-13T08:04:03;6.10;99.90
31133;DHT22;17779;50.942;4.026;2022-11-13T08:06:29;6.50;99.90
31133;DHT22;17779;50.942;4.026;2022-11-13T08:08:55;7.20;99.90
31133;DHT22;17779;50.942;4.026;2022-11-13T08:11:20;7.50;99.90
31133;DHT22;17779;50.942;4.026;2022-11-13T08:13:47;8.30;99.90
31133;DHT22;17779;50.942;4.026;2022-11-13T08:16:13;9.70;99.90
31133;DHT22;17779;50.942;4.026;2022-11-13T08:18:39;11.40;99.90
31133;DHT22;17779;50.942;4.026;2022-11-13T08:21:05;12.80;99.90
31133;DHT22;17779;50.942;4.026;2022-11-13T08:23:31;13.60;99.90
31133;DHT22;17779;50.942;4.026;2022-11-13T08:25:57;14.60;99.90
31133;DHT22;17779;50.942;4.026;2022-11-13T08:28:23;15.80;99.90
31133;DHT22;17779;50.942;4.026;2022-11-13T08:30:48;17.10;99.90
31133;DHT22;17779;50.942;4.026;2022-11-13T08:33:14;18.20;99.90
31133;DHT22;17779;50.942;4.026;2022-11-13T08:35:40;18.10;99.90
31133;DHT22;17779;50.942;4.026;2022-11-13T08:38:06;18.60;99.90
31133;DHT22;17779;50.942;4.026;2022-11-13T08:40:32;19.40;99.90
31133;DHT22;17779;50.942;4.026;2022-11-13T08:42:59;19.90;99.90
31133;DHT22;17779;50.942;4.026;2022-11-13T08:45:28;19.50;99.90
31133;DHT22;17779;50.942;4.026;2022-11-13T08:47:57;19.30;99.90
31133;DHT22;17779;50.942;4.026;2022-11-13T08:50:23;19.20;99.90
31133;DHT22;17779;50.942;4.026;2022-11-13T08:52:52;18.70;99.90
31133;DHT22;17779;50.942;4.026;2022-11-13T08:55:18;18.20;99.90
31133;DHT22;17779;50.942;4.026;2022-11-13T08:57:43;18.90;99.90
31133;DHT22;17779;50.942;4.026;2022-11-13T09:00:09;19.20;99.90
31133;DHT22;17779;50.942;4.026;2022-11-13T09:02:35;19.80;99.90
31133;DHT22;17779;50.942;4.026;2022-11-13T09:05:00;19.70;99.90
31133;DHT22;17779;50.942;4.026;2022-11-13T09:07:26;17.90;99.90
31133;DHT22;17779;50.942;4.026;2022-11-13T09:09:52;17.90;99.90
31133;DHT22;17779;50.942;4.026;2022-11-13T09:12:17;17.80;99.90
31133;DHT22;17779;50.942;4.026;2022-11-13T09:14:43;17.00;99.90
31133;DHT22;17779;50.942;4.026;2022-11-13T09:17:08;17.10;99.90
31133;DHT22;17779;50.942;4.026;2022-11-13T09:19:34;16.90;99.90
31133;DHT22;17779;50.942;4.026;2022-11-13T09:21:59;16.30;99.90
31133;DHT22;17779;50.942;4.026;2022-11-13T09:24:25;15.40;99.90
31133;DHT22;17779;50.942;4.026;2022-11-13T09:26:51;15.40;99.90
31133;DHT22;17779;50.942;4.026;2022-11-13T09:29:18;15.30;99.90
31133;DHT22;17779;50.942;4.026;2022-11-13T09:31:46;14.90;99.90
31133;DHT22;17779;50.942;4.026;2022-11-13T09:34:12;15.30;99.90
31133;DHT22;17779;50.942;4.026;2022-11-13T09:36:37;15.60;99.90
31133;DHT22;17779;50.942;4.026;2022-11-13T09:39:03;16.10;99.90
31133;DHT22;17779;50.942;4.026;2022-11-13T09:41:30;15.80;99.90
31133;DHT22;17779;50.942;4.026;2022-11-13T09:43:59;17.30;99.90
31133;DHT22;17779;50.942;4.026;2022-11-13T09:49:12;16.30;99.90
31133;DHT22;17779;50.942;4.026;2022-11-13T09:51:40;16.10;99.90
31133;DHT22;17779;50.942;4.026;2022-11-13T09:54:13;17.10;99.90
31133;DHT22;17779;50.942;4.026;2022-11-13T09:56:41;15.90;99.90
31133;DHT22;17779;50.942;4.026;2022-11-13T09:59:23;14.80;99.90
31133;DHT22;17779;50.942;4.026;2022-11-13T10:02:02;14.70;99.90
31133;DHT22;17779;50.942;4.026;2022-11-13T10:07:21;13.40;99.90
31133;DHT22;17779;50.942;4.026;2022-11-13T10:12:14;12.40;99.90
31133;DHT22;17779;50.942;4.026;2022-11-13T10:14:42;12.20;99.90
31133;DHT22;17779;50.942;4.026;2022-11-13T10:19:46;12.40;99.90
31133;DHT22;17779;50.942;4.026;2022-11-13T10:22:22;12.60;99.90
31133;DHT22;17779;50.942;4.026;2022-11-13T10:24:49;12.50;99.90
31133;DHT22;17779;50.942;4.026;2022-11-13T10:27:16;13.10;99.90
31133;DHT22;17779;50.942;4.026;2022-11-13T10:29:42;12.90;99.90
31133;DHT22;17779;50.942;4.026;2022-11-13T10:32:13;13.40;99.90
31133;DHT22;17779;50.942;4.026;2022-11-13T10:34:39;13.60;99.90
31133;DHT22;17779;50.942;4.026;2022-11-13T10:37:22;13.30;99.90
31133;DHT22;17779;50.942;4.026;2022-11-13T10:39:51;13.30;99.90
31133;DHT22;17779;50.942;4.026;2022-11-13T10:42:27;13.50;99.90
31133;DHT22;17779;50.942;4.026;2022-11-13T10:44:58;14.00;99.90
31133;DHT22;17779;50.942;4.026;2022-11-13T10:47:25;14.10;99.90
31133;DHT22;17779;50.942;4.026;2022-11-13T10:49:51;13.50;99.90
31133;DHT22;17779;50.942;4.026;2022-11-13T10:52:26;14.30;99.90
31133;DHT22;17779;50.942;4.026;2022-11-13T10:57:38;13.80;99.90
31133;DHT22;17779;50.942;4.026;2022-11-13T11:02:48;14.30;99.90
31133;DHT22;17779;50.942;4.026;2022-11-13T11:07:40;14.60;99.90
31133;DHT22;17779;50.942;4.026;2022-11-13T11:10:52;14.00;99.90
31133;DHT22;17779;50.942;4.026;2022-11-13T11:12:57;14.40;99.90
31133;DHT22;17779;50.942;4.026;2022-11-13T11:15:31;13.80;99.90
31133;DHT22;17779;50.942;4.026;2022-11-13T11:18:03;13.60;99.90
31133;DHT22;17779;50.942;4.026;2022-11-13T11:20:44;13.50;99.90
31133;DHT22;17779;50.942;4.026;2022-11-13T11:25:46;14.00;99.90
31133;DHT22;17779;50.942;4.026;2022-11-13T11:28:14;14.20;99.90
31133;DHT22;17779;50.942;4.026;2022-11-13T11:30:44;14.40;99.90
31133;DHT22;17779;50.942;4.026;2022-11-13T11:33:13;13.90;99.90
31133;DHT22;17779;50.942;4.026;2022-11-13T11:35:42;14.10;99.90
31133;DHT22;17779;50.942;4.026;2022-11-13T11:41:08;14.80;99.90
31133;DHT22;17779;50.942;4.026;2022-11-13T11:43:59;16.10;99.90
31133;DHT22;17779;50.942;4.026;2022-11-13T11:46:28;16.50;99.90
31133;DHT22;17779;50.942;4.026;2022-11-13T11:48:56;15.50;99.90
31133;DHT22;17779;50.942;4.026;2022-11-13T11:51:30;15.10;99.90
31133;DHT22;17779;50.942;4.026;2022-11-13T11:53:58;15.20;99.90
31133;DHT22;17779;50.942;4.026;2022-11-13T11:56:34;15.70;99.90
31133;DHT22;17779;50.942;4.026;2022-11-13T11:59:07;15.20;99.90
31133;DHT22;17779;50.942;4.026;2022-11-13T12:04:12;15.30;99.90
31133;DHT22;17779;50.942;4.026;2022-11-13T12:09:18;16.20;99.90
31133;DHT22;17779;50.942;4.026;2022-11-13T12:11:50;17.20;99.90
31133;DHT22;17779;50.942;4.026;2022-11-13T12:14:37;18.10;99.90
31133;DHT22;17779;50.942;4.026;2022-11-13T12:19:57;18.10;99.90
31133;DHT22;17779;50.942;4.026;2022-11-13T12:27:56;18.80;99.90
31133;DHT22;17779;50.942;4.026;2022-11-13T12:30:31;19.60;99.90
31133;DHT22;17779;50.942;4.026;2022-11-13T12:33:12;20.00;99.90
31133;DHT22;17779;50.942;4.026;2022-11-13T12:35:39;20.60;99.90
31133;DHT22;17779;50.942;4.026;2022-11-13T12:38:10;21.60;99.90
31133;DHT22;17779;50.942;4.026;2022-11-13T12:45:54;20.50;99.90
31133;DHT22;17779;50.942;4.026;2022-11-13T12:48:25;20.70;99.90
31133;DHT22;17779;50.942;4.026;2022-11-13T12:51:00;21.00;99.90
31133;DHT22;17779;50.942;4.026;2022-11-13T12:53:27;21.80;99.90
31133;DHT22;17779;50.942;4.026;2022-11-13T12:55:54;21.80;99.90
31133;DHT22;17779;50.942;4.026;2022-11-13T12:58:25;22.50;99.90
31133;DHT22;17779;50.942;4.026;2022-11-13T13:00:53;22.50;99.90
31133;DHT22;17779;50.942;4.026;2022-11-13T13:08:55;23.90;99.90
31133;DHT22;17779;50.942;4.026;2022-11-13T13:11:28;25.00;99.90
31133;DHT22;17779;50.942;4.026;2022-11-13T13:14:16;25.90;99.90
31133;DHT22;17779;50.942;4.026;2022-11-13T13:16:43;26.50;98.40
31133;DHT22;17779;50.942;4.026;2022-11-13T13:19:23;26.60;97.60
31133;DHT22;17779;50.942;4.026;2022-11-13T13:21:49;27.20;96.30
31133;DHT22;17779;50.942;4.026;2022-11-13T13:24:34;27.40;95.00
31133;DHT22;17779;50.942;4.026;2022-11-13T13:27:00;28.20;94.10
31133;DHT22;17779;50.942;4.026;2022-11-13T13:29:26;28.00;92.50
31133;DHT22;17779;50.942;4.026;2022-11-13T13:31:56;25.50;95.80
31133;DHT22;17779;50.942;4.026;2022-11-13T13:42:17;26.10;94.70
31133;DHT22;17779;50.942;4.026;2022-11-13T13:47:27;22.90;98.90
31133;DHT22;17779;50.942;4.026;2022-11-13T13:49:54;21.40;99.90
31133;DHT22;17779;50.942;4.026;2022-11-13T13:52:22;20.50;99.90
31133;DHT22;17779;50.942;4.026;2022-11-13T13:54:50;19.40;99.90
31133;DHT22;17779;50.942;4.026;2022-11-13T13:57:15;18.60;99.90
31133;DHT22;17779;50.942;4.026;2022-11-13T13:59:41;18.10;99.90
31133;DHT22;17779;50.942;4.026;2022-11-13T14:02:18;17.90;99.90
31133;DHT22;17779;50.942;4.026;2022-11-13T14:04:45;17.50;99.90
31133;DHT22;17779;50.942;4.026;2022-11-13T14:09:43;17.50;99.90
31133;DHT22;17779;50.942;4.026;2022-11-13T14:12:19;17.00;99.90
31133;DHT22;17779;50.942;4.026;2022-11-13T14:14:45;16.60;99.90
31133;DHT22;17779;50.942;4.026;2022-11-13T14:17:11;16.50;99.90
31133;DHT22;17779;50.942;4.026;2022-11-13T14:19:37;16.50;99.90
31133;DHT22;17779;50.942;4.026;2022-11-13T14:22:04;16.10;99.90
31133;DHT22;17779;50.942;4.026;2022-11-13T14:24:32;15.80;99.90
31133;DHT22;17779;50.942;4.026;2022-11-13T14:26:59;15.60;99.90
31133;DHT22;17779;50.942;4.026;2022-11-13T14:34:46;15.30;99.90
31133;DHT22;17779;50.942;4.026;2022-11-13T14:37:17;15.50;99.90
31133;DHT22;17779;50.942;4.026;2022-11-13T14:39:45;15.60;99.90
31133;DHT22;17779;50.942;4.026;2022-11-13T14:42:21;15.70;99.90
31133;DHT22;17779;50.942;4.026;2022-11-13T14:44:49;15.70;99.90
31133;DHT22;17779;50.942;4.026;2022-11-13T14:47:19;15.60;99.90
31133;DHT22;17779;50.942;4.026;2022-11-13T14:49:45;15.60;99.90
31133;DHT22;17779;50.942;4.026;2022-11-13T14:52:24;15.60;99.90
31133;DHT22;17779;50.942;4.026;2022-11-13T14:54:59;15.60;99.90
31133;DHT22;17779;50.942;4.026;2022-11-13T14:57:25;15.60;99.90
31133;DHT22;17779;50.942;4.026;2022-11-13T14:59:50;15.60;99.90
31133;DHT22;17779;50.942;4.026;2022-11-13T15:02:16;15.50;99.90
31133;DHT22;17779;50.942;4.026;2022-11-13T15:04:42;15.20;99.90
31133;DHT22;17779;50.942;4.026;2022-11-13T15:09:53;14.80;99.90
31133;DHT22;17779;50.942;4.026;2022-11-13T15:12:19;14.50;99.90
31133;DHT22;17779;50.942;4.026;2022-11-13T15:14:44;14.40;99.90
31133;DHT22;17779;50.942;4.026;2022-11-13T15:17:12;14.40;99.90
31133;DHT22;17779;50.942;4.026;2022-11-13T15:19:39;14.40;99.90
31133;DHT22;17779;50.942;4.026;2022-11-13T15:22:11;14.30;99.90
31133;DHT22;17779;50.942;4.026;2022-11-13T15:24:38;14.50;99.90
31133;DHT22;17779;50.942;4.026;2022-11-13T15:27:03;14.50;99.90
31133;DHT22;17779;50.942;4.026;2022-11-13T15:29:30;14.60;99.90
31133;DHT22;17779;50.942;4.026;2022-11-13T15:31:56;14.50;99.90
31133;DHT22;17779;50.942;4.026;2022-11-13T15:34:21;14.40;99.90
31133;DHT22;17779;50.942;4.026;2022-11-13T15:36:47;14.30;99.90
31133;DHT22;17779;50.942;4.026;2022-11-13T15:39:12;14.30;99.90
31133;DHT22;17779;50.942;4.026;2022-11-13T15:41:38;14.20;99.90
31133;DHT22;17779;50.942;4.026;2022-11-13T15:44:09;14.20;99.90
31133;DHT22;17779;50.942;4.026;2022-11-13T15:46:36;14.00;99.90
31133;DHT22;17779;50.942;4.026;2022-11-13T15:49:02;13.80;99.90
31133;DHT22;17779;50.942;4.026;2022-11-13T15:54:15;13.60;99.90
31133;DHT22;17779;50.942;4.026;2022-11-13T15:56:39;13.60;99.90
31133;DHT22;17779;50.942;4.026;2022-11-13T15:59:05;13.60;99.90
31133;DHT22;17779;50.942;4.026;2022-11-13T16:01:31;13.50;99.90
31133;DHT22;17779;50.942;4.026;2022-11-13T16:03:56;13.50;99.90
31133;DHT22;17779;50.942;4.026;2022-11-13T16:06:26;13.40;99.90
31133;DHT22;17779;50.942;4.026;2022-11-13T16:08:52;13.30;99.90
31133;DHT22;17779;50.942;4.026;2022-11-13T16:11:19;13.20;99.90
31133;DHT22;17779;50.942;4.026;2022-11-13T16:13:45;13.10;99.90
31133;DHT22;17779;50.942;4.026;2022-11-13T16:16:14;13.00;99.90
31133;DHT22;17779;50.942;4.026;2022-11-13T16:18:41;12.90;99.90
31133;DHT22;17779;50.942;4.026;2022-11-13T16:21:09;12.70;99.90
31133;DHT22;17779;50.942;4.026;2022-11-13T16:23:34;12.70;99.90
31133;DHT22;17779;50.942;4.026;2022-11-13T16:26:00;12.60;99.90
31133;DHT22;17779;50.942;4.026;2022-11-13T16:28:28;12.60;99.90
31133;DHT22;17779;50.942;4.026;2022-11-13T16:30:55;12.40;99.90
31133;DHT22;17779;50.942;4.026;2022-11-13T16:33:22;12.30;99.90
31133;DHT22;17779;50.942;4.026;2022-11-13T16:35:48;12.00;99.90
31133;DHT22;17779;50.942;4.026;2022-11-13T16:38:13;11.90;99.90
31133;DHT22;17779;50.942;4.026;2022-11-13T16:40:39;11.90;99.90
31133;DHT22;17779;50.942;4.026;2022-11-13T16:43:07;12.00;99.90
31133;DHT22;17779;50.942;4.026;2022-11-13T16:45:33;12.00;99.90
31133;DHT22;17779;50.942;4.026;2022-11-13T16:48:00;12.20;99.90
31133;DHT22;17779;50.942;4.026;2022-11-13T16:50:29;12.10;99.90
31133;DHT22;17779;50.942;4.026;2022-11-13T16:52:55;12.00;99.90
31133;DHT22;17779;50.942;4.026;2022-11-13T16:55:24;11.90;99.90
31133;DHT22;17779;50.942;4.026;2022-11-13T16:57:50;11.60;99.90
31133;DHT22;17779;50.942;4.026;2022-11-13T17:00:18;11.60;99.90
31133;DHT22;17779;50.942;4.026;2022-11-13T17:02:44;11.50;99.90
31133;DHT22;17779;50.942;4.026;2022-11-13T17:05:13;11.50;99.90
31133;DHT22;17779;50.942;4.026;2022-11-13T17:07:40;11.20;99.90
31133;DHT22;17779;50.942;4.026;2022-11-13T17:10:08;11.20;99.90
31133;DHT22;17779;50.942;4.026;2022-11-13T17:12:36;11.20;99.90
31133;DHT22;17779;50.942;4.026;2022-11-13T17:15:01;11.20;99.90